Time;durP1;ratioP1;P1;durP2;ratioP2;P2;SDS_P1;SDS_P2;PMS_P1;PMS_P2;Temp;Humidity;BMP_temperature;BMP_pressure;BME280_temperature;BME280_humidity;BME280_pressure;Samples;Min_cycle;Max_cycle;Signal;HPM_P1;HPM_P2
2023/12/14 00:00:27;;;;;;;0.40;0.40;;;4.50;99.90;;;;;;2048862;28;20316;-73
2023/12/14 00:01:28;;;;;;;0.47;0.47;;;4.50;99.90;;;;;;2052630;28;20242;-73
2023/12/14 00:02:29;;;;;;;0.23;0.23;;;4.60;99.90;;;;;;2045890;28;20231;-73
2023/12/14 00:03:29;;;;;;;0.30;0.30;;;4.50;99.90;;;;;;2061901;28;20316;-74
2023/12/14 00:04:30;;;;;;;0.30;0.30;;;4.40;99.90;;;;;;2049490;28;20321;-73
2023/12/14 00:05:31;;;;;;;0.20;0.20;;;4.40;99.90;;;;;;2058604;28;20228;-73
2023/12/14 00:06:32;;;;;;;0.30;0.30;;;4.40;99.90;;;;;;2058403;28;20750;-73
2023/12/14 00:07:33;;;;;;;0.20;0.20;;;4.40;99.90;;;;;;2060005;28;20710;-73
2023/12/14 00:08:33;;;;;;;0.20;0.20;;;4.40;99.90;;;;;;2079184;28;20226;-73
2023/12/14 00:09:34;;;;;;;0.30;0.30;;;4.30;99.90;;;;;;2079634;28;20223;-73
2023/12/14 00:10:35;;;;;;;0.30;0.30;;;4.20;99.90;;;;;;2054116;28;20242;-73
2023/12/14 00:11:39;;;;;;;0.33;0.33;;;4.30;99.90;;;;;;2051252;28;20212;-73
2023/12/14 00:12:39;;;;;;;0.85;0.20;;;4.20;99.90;;;;;;2039137;28;20228;-73
2023/12/14 00:13:40;;;;;;;0.17;0.17;;;4.10;99.90;;;;;;2060229;28;20699;-73
2023/12/14 00:14:41;;;;;;;7.07;0.53;;;4.00;99.90;;;;;;2050780;28;20246;-73
2023/12/14 00:15:42;;;;;;;0.20;0.20;;;4.10;99.90;;;;;;2056825;28;20280;-73
2023/12/14 00:16:43;;;;;;;0.20;0.20;;;4.00;99.90;;;;;;2044400;28;20744;-73
2023/12/14 00:17:43;;;;;;;0.30;0.30;;;4.00;99.90;;;;;;2037838;28;20216;-73
2023/12/14 00:18:44;;;;;;;0.23;0.23;;;4.00;99.90;;;;;;2040703;28;20219;-74
2023/12/14 00:19:45;;;;;;;0.20;0.20;;;4.00;99.90;;;;;;2045879;28;20709;-73
2023/12/14 00:20:46;;;;;;;0.23;0.23;;;4.00;99.90;;;;;;2048351;28;20232;-73
2023/12/14 00:21:47;;;;;;;0.30;0.30;;;4.00;99.90;;;;;;2057817;28;20737;-73
2023/12/14 00:22:48;;;;;;;0.20;0.20;;;4.10;99.90;;;;;;2050953;28;20269;-73
2023/12/14 00:23:48;;;;;;;0.30;0.30;;;4.10;99.90;;;;;;2044646;28;20725;-74
2023/12/14 00:24:50;;;;;;;0.20;0.20;;;4.10;99.90;;;;;;2042793;28;20227;-73
2023/12/14 00:25:51;;;;;;;0.28;0.28;;;4.00;99.90;;;;;;2035361;28;20601;-73
2023/12/14 00:26:52;;;;;;;0.40;0.40;;;3.90;99.90;;;;;;2073177;28;20221;-73
2023/12/14 00:27:52;;;;;;;0.30;0.30;;;3.90;99.90;;;;;;2059612;28;20232;-73
2023/12/14 00:28:53;;;;;;;0.30;0.30;;;3.90;99.90;;;;;;2050406;28;20222;-73
2023/12/14 00:29:54;;;;;;;0.40;0.40;;;3.80;99.90;;;;;;2041289;28;20243;-73
2023/12/14 00:30:55;;;;;;;0.30;0.30;;;3.80;99.90;;;;;;2033824;28;20251;-73
2023/12/14 00:31:55;;;;;;;0.70;0.40;;;3.70;99.90;;;;;;2044788;28;20296;-73
2023/12/14 00:32:56;;;;;;;0.30;0.30;;;3.70;99.90;;;;;;2044945;28;20219;-73
2023/12/14 00:33:57;;;;;;;1.40;0.40;;;3.70;99.90;;;;;;2045536;28;20238;-74
2023/12/14 00:34:58;;;;;;;0.20;0.20;;;3.60;99.90;;;;;;2044467;28;20701;-73
2023/12/14 00:35:59;;;;;;;0.20;0.20;;;3.70;99.90;;;;;;2043094;28;20219;-73
2023/12/14 00:37:00;;;;;;;0.20;0.20;;;3.60;99.90;;;;;;2036918;29;20220;-73
2023/12/14 00:38:00;;;;;;;0.30;0.30;;;3.50;99.90;;;;;;2034437;28;20224;-73
2023/12/14 00:39:01;;;;;;;0.37;0.37;;;3.50;99.90;;;;;;2037305;29;20228;-74
2023/12/14 00:40:03;;;;;;;0.30;0.30;;;3.60;99.90;;;;;;2045846;28;20192;-74
2023/12/14 00:41:04;;;;;;;0.28;0.28;;;3.50;99.90;;;;;;2043741;28;20206;-73
2023/12/14 00:42:05;;;;;;;0.30;0.30;;;3.60;99.90;;;;;;2037638;28;20216;-74
2023/12/14 00:43:05;;;;;;;0.30;0.30;;;3.60;99.90;;;;;;2045692;28;20188;-74
2023/12/14 00:44:06;;;;;;;0.30;0.30;;;3.60;99.90;;;;;;2041373;28;20187;-73
2023/12/14 00:45:07;;;;;;;0.30;0.30;;;3.60;99.90;;;;;;2038792;28;20240;-73
2023/12/14 00:46:09;;;;;;;1.55;0.60;;;3.60;99.90;;;;;;2032063;29;20227;-73
2023/12/14 00:47:09;;;;;;;0.30;0.30;;;3.50;99.90;;;;;;2037355;29;20218;-73
2023/12/14 00:48:10;;;;;;;0.30;0.30;;;3.60;99.90;;;;;;2037637;29;20677;-74
2023/12/14 00:49:11;;;;;;;0.40;0.30;;;3.60;99.90;;;;;;2029942;28;20235;-73
2023/12/14 00:50:12;;;;;;;0.30;0.30;;;3.50;99.90;;;;;;2035858;28;20275;-73
2023/12/14 00:51:12;;;;;;;0.30;0.30;;;3.50;99.90;;;;;;2046037;28;20780;-73
2023/12/14 00:52:13;;;;;;;0.30;0.30;;;3.50;99.90;;;;;;2040434;28;20195;-73
2023/12/14 00:53:14;;;;;;;0.38;0.38;;;3.50;99.90;;;;;;2044742;28;20188;-73
2023/12/14 00:54:15;;;;;;;0.43;0.30;;;3.50;99.90;;;;;;2036862;28;20234;-74
2023/12/14 00:55:16;;;;;;;0.30;0.30;;;3.50;99.90;;;;;;2039630;28;20201;-74
2023/12/14 00:56:16;;;;;;;0.30;0.30;;;3.50;99.90;;;;;;2038247;28;20288;-73
2023/12/14 00:57:17;;;;;;;0.30;0.30;;;3.40;99.90;;;;;;2036944;28;20249;-73
2023/12/14 00:58:18;;;;;;;0.20;0.20;;;3.50;99.90;;;;;;2044834;28;20314;-73
2023/12/14 00:59:18;;;;;;;0.30;0.30;;;3.50;99.90;;;;;;2045190;28;20241;-73
2023/12/14 01:00:19;;;;;;;0.43;0.40;;;3.50;99.90;;;;;;2038231;28;20253;-73
2023/12/14 01:01:20;;;;;;;0.37;0.37;;;3.40;99.90;;;;;;2030832;28;20256;-74
2023/12/14 01:02:21;;;;;;;0.40;0.40;;;3.50;99.90;;;;;;2035552;29;21596;-73
2023/12/14 01:03:22;;;;;;;0.40;0.40;;;3.40;99.90;;;;;;2045298;28;20243;-73
2023/12/14 01:04:23;;;;;;;0.28;0.28;;;3.50;99.90;;;;;;2043617;28;20232;-74
2023/12/14 01:05:24;;;;;;;0.53;0.40;;;3.40;99.90;;;;;;2050429;28;20238;-73
2023/12/14 01:06:25;;;;;;;0.30;0.30;;;3.50;99.90;;;;;;2045261;28;20318;-74
2023/12/14 01:07:25;;;;;;;0.35;0.35;;;3.50;99.90;;;;;;2037645;29;20264;-73
2023/12/14 01:08:26;;;;;;;0.30;0.30;;;3.50;99.90;;;;;;2045323;28;20232;-73
2023/12/14 01:09:27;;;;;;;0.67;0.60;;;3.60;99.90;;;;;;2045650;28;20226;-73
2023/12/14 01:10:27;;;;;;;0.40;0.40;;;3.70;99.90;;;;;;2041629;28;20248;-73
2023/12/14 01:11:28;;;;;;;0.40;0.40;;;3.70;99.90;;;;;;2043854;28;20243;-73
2023/12/14 01:12:29;;;;;;;0.30;0.30;;;3.70;99.90;;;;;;2050255;28;20304;-74
2023/12/14 01:13:30;;;;;;;0.57;0.43;;;3.70;99.90;;;;;;2043025;28;20325;-73
2023/12/14 01:14:30;;;;;;;3.13;0.50;;;3.70;99.90;;;;;;2038171;28;20228;-73
2023/12/14 01:15:31;;;;;;;0.30;0.30;;;3.70;99.90;;;;;;2045292;28;20220;-73
2023/12/14 01:16:32;;;;;;;0.50;0.50;;;3.80;99.90;;;;;;2046629;28;20298;-73
2023/12/14 01:17:36;;;;;;;0.20;0.20;;;3.80;99.90;;;;;;2033227;28;20456;-73
2023/12/14 01:18:36;;;;;;;0.43;0.40;;;3.90;99.90;;;;;;2043125;28;20215;-73
2023/12/14 01:19:41;;;;;;;0.40;0.40;;;4.00;99.90;;;;;;2060977;28;20333;-73
2023/12/14 01:20:41;;;;;;;0.30;0.30;;;4.00;99.90;;;;;;2042868;28;20248;-73
2023/12/14 01:21:42;;;;;;;0.33;0.33;;;4.10;99.90;;;;;;2042964;28;20258;-74
2023/12/14 01:22:43;;;;;;;0.30;0.30;;;4.10;99.90;;;;;;2054892;28;20216;-73
2023/12/14 01:23:44;;;;;;;0.30;0.30;;;4.20;99.90;;;;;;2050579;28;20220;-74
2023/12/14 01:24:44;;;;;;;0.30;0.30;;;4.20;99.90;;;;;;2061443;28;20237;-73
2023/12/14 01:25:45;;;;;;;0.40;0.30;;;4.30;99.90;;;;;;2041441;28;20227;-73
2023/12/14 01:26:46;;;;;;;0.33;0.33;;;4.20;99.90;;;;;;2067605;28;20246;-73
2023/12/14 01:27:47;;;;;;;0.73;0.40;;;4.30;99.90;;;;;;2061002;28;20254;-73
2023/12/14 01:28:48;;;;;;;0.80;0.50;;;4.40;99.90;;;;;;2038964;28;20781;-73
2023/12/14 01:29:48;;;;;;;0.50;0.50;;;4.40;99.90;;;;;;2030067;29;20213;-73
2023/12/14 01:30:49;;;;;;;0.30;0.30;;;4.50;99.90;;;;;;2072006;28;20652;-73
2023/12/14 01:31:50;;;;;;;1.13;0.30;;;4.40;99.90;;;;;;2054557;28;20231;-73
2023/12/14 01:32:50;;;;;;;0.50;0.50;;;4.50;99.90;;;;;;2045800;28;20222;-73
2023/12/14 01:33:52;;;;;;;0.40;0.40;;;4.40;99.90;;;;;;2037123;28;20304;-73
2023/12/14 01:34:53;;;;;;;0.40;0.40;;;4.40;99.90;;;;;;2037430;28;20299;-73
2023/12/14 01:35:53;;;;;;;0.40;0.40;;;4.40;99.90;;;;;;2035376;28;20609;-73
2023/12/14 01:36:54;;;;;;;0.67;0.57;;;4.50;99.90;;;;;;2037985;28;20224;-74
2023/12/14 01:37:55;;;;;;;0.60;0.50;;;4.50;99.90;;;;;;2040677;28;20215;-73
2023/12/14 01:38:55;;;;;;;0.60;0.60;;;4.50;99.90;;;;;;2036740;28;20644;-73
2023/12/14 01:39:56;;;;;;;0.50;0.50;;;4.50;99.90;;;;;;2043683;28;20735;-74
2023/12/14 01:40:58;;;;;;;0.40;0.40;;;4.40;99.90;;;;;;2044492;28;20230;-74
2023/12/14 01:41:58;;;;;;;0.40;0.40;;;4.40;99.90;;;;;;2035926;29;20228;-73
2023/12/14 01:43:10;;;;;;;0.23;0.23;;;4.50;99.90;;;;;;2028706;28;20287;-74
2023/12/14 01:44:11;;;;;;;0.93;0.75;;;4.50;99.90;;;;;;2038882;28;20219;-74
2023/12/14 01:45:15;;;;;;;0.50;0.50;;;4.40;99.90;;;;;;2058229;28;20212;-73
2023/12/14 01:46:16;;;;;;;0.28;0.28;;;4.40;99.90;;;;;;2059424;28;20207;-73
2023/12/14 01:47:17;;;;;;;0.35;0.30;;;4.40;99.90;;;;;;2065104;28;20191;-73
2023/12/14 01:48:18;;;;;;;0.28;0.28;;;4.30;99.90;;;;;;2049922;28;20199;-73
2023/12/14 01:49:20;;;;;;;0.20;0.20;;;4.30;99.90;;;;;;2056919;28;20202;-73
2023/12/14 01:50:21;;;;;;;0.75;0.30;;;4.40;99.90;;;;;;2065433;28;20320;-74
2023/12/14 01:51:22;;;;;;;0.40;0.40;;;4.40;99.90;;;;;;2057328;28;20323;-73
2023/12/14 01:52:22;;;;;;;0.40;0.40;;;4.40;99.90;;;;;;2065195;28;20231;-74
2023/12/14 01:53:23;;;;;;;0.40;0.40;;;4.30;99.90;;;;;;2078017;28;20219;-74
2023/12/14 01:54:24;;;;;;;0.50;0.50;;;4.30;99.90;;;;;;2064679;28;20222;-74
2023/12/14 01:55:26;;;;;;;0.40;0.40;;;4.30;99.90;;;;;;2047946;28;20681;-74
2023/12/14 01:56:27;;;;;;;0.40;0.40;;;4.40;99.90;;;;;;2044355;28;20843;-74
2023/12/14 01:57:28;;;;;;;0.30;0.30;;;4.30;99.90;;;;;;2059320;28;20259;-74
2023/12/14 01:58:28;;;;;;;0.30;0.30;;;4.20;99.90;;;;;;2070601;28;20663;-74
2023/12/14 01:59:30;;;;;;;1.30;0.80;;;4.20;99.90;;;;;;2058297;28;20327;-74
2023/12/14 02:01:04;;;;;;;0.20;0.20;;;4.20;99.90;;;;;;2045803;28;20233;-74
2023/12/14 02:02:05;;;;;;;0.40;0.40;;;4.20;99.90;;;;;;2038630;28;20240;-74
2023/12/14 02:03:06;;;;;;;0.32;0.32;;;4.10;99.90;;;;;;2044229;28;20262;-74
2023/12/14 02:04:07;;;;;;;0.40;0.40;;;4.10;99.90;;;;;;2039425;28;20263;-74
2023/12/14 02:05:08;;;;;;;0.40;0.40;;;4.10;99.90;;;;;;2043824;28;20211;-74
2023/12/14 02:06:09;;;;;;;0.50;0.50;;;4.00;99.90;;;;;;2036532;29;20250;-74
2023/12/14 02:07:11;;;;;;;0.80;0.47;;;4.00;99.90;;;;;;2038473;28;20195;-74
2023/12/14 02:08:12;;;;;;;0.70;0.60;;;3.90;99.90;;;;;;2042093;28;20232;-73
2023/12/14 02:09:13;;;;;;;1.03;0.80;;;3.90;99.90;;;;;;2041874;28;20299;-73
2023/12/14 02:10:14;;;;;;;0.80;0.63;;;3.90;99.90;;;;;;2040819;28;20690;-73
2023/12/14 02:11:15;;;;;;;0.60;0.50;;;3.90;99.90;;;;;;2083599;28;20212;-73
2023/12/14 02:12:15;;;;;;;0.60;0.50;;;3.90;99.90;;;;;;2077186;28;20263;-74
2023/12/14 02:13:17;;;;;;;1.30;0.80;;;3.90;99.90;;;;;;2045971;28;20198;-74
2023/12/14 02:14:21;;;;;;;0.82;0.63;;;4.00;99.90;;;;;;2041826;28;20199;-73
2023/12/14 02:15:22;;;;;;;0.63;0.63;;;4.00;99.90;;;;;;2035402;29;20286;-74
2023/12/14 02:16:23;;;;;;;0.60;0.60;;;3.90;99.90;;;;;;2045093;28;20328;-74
2023/12/14 02:17:24;;;;;;;0.70;0.70;;;3.90;99.90;;;;;;2036689;28;20228;-74
2023/12/14 02:18:25;;;;;;;1.17;0.50;;;3.90;99.90;;;;;;2044203;28;20235;-74
2023/12/14 02:19:25;;;;;;;0.90;0.60;;;3.90;99.90;;;;;;2043405;28;20224;-74
2023/12/14 02:20:26;;;;;;;1.10;0.60;;;4.00;99.90;;;;;;2043567;28;20253;-74
2023/12/14 02:21:27;;;;;;;0.60;0.60;;;3.90;99.90;;;;;;2043598;28;21007;-74
2023/12/14 02:22:27;;;;;;;0.80;0.80;;;4.00;99.90;;;;;;2040576;28;20231;-73
2023/12/14 02:23:28;;;;;;;0.70;0.70;;;4.00;99.90;;;;;;2036800;29;20228;-73
2023/12/14 02:24:29;;;;;;;0.97;0.80;;;4.00;99.90;;;;;;2044651;28;20231;-73
2023/12/14 02:25:29;;;;;;;1.30;0.83;;;4.00;99.90;;;;;;2042785;28;20592;-73
2023/12/14 02:26:30;;;;;;;0.70;0.70;;;4.00;99.90;;;;;;2051752;28;20225;-74
2023/12/14 02:27:31;;;;;;;0.73;0.70;;;4.00;99.90;;;;;;2052393;28;20227;-73
2023/12/14 02:28:32;;;;;;;1.80;0.60;;;4.00;99.90;;;;;;2044072;28;20230;-73
2023/12/14 02:29:32;;;;;;;0.83;0.73;;;4.00;99.90;;;;;;2044773;28;20756;-73
2023/12/14 02:30:33;;;;;;;0.80;0.80;;;4.00;99.90;;;;;;2047314;28;20263;-75
2023/12/14 02:31:34;;;;;;;0.70;0.70;;;4.10;99.90;;;;;;2044739;28;20255;-74
2023/12/14 02:32:34;;;;;;;0.60;0.60;;;4.00;99.90;;;;;;2037193;28;20366;-74
2023/12/14 02:33:35;;;;;;;1.03;0.70;;;4.10;99.90;;;;;;2044545;28;20693;-74
2023/12/14 02:34:36;;;;;;;0.67;0.67;;;4.00;99.90;;;;;;2046319;28;20243;-74
2023/12/14 02:35:38;;;;;;;1.00;0.90;;;4.00;99.90;;;;;;2040748;28;20780;-74
2023/12/14 02:36:39;;;;;;;0.70;0.70;;;4.00;99.90;;;;;;2041041;28;20227;-74
2023/12/14 02:37:40;;;;;;;0.63;0.63;;;4.00;99.90;;;;;;2061747;28;20225;-74
2023/12/14 02:38:41;;;;;;;0.93;0.80;;;4.10;99.90;;;;;;2055286;28;20223;-73
2023/12/14 02:39:41;;;;;;;1.10;0.80;;;4.10;99.90;;;;;;2036355;29;20694;-74
2023/12/14 02:40:42;;;;;;;1.20;0.90;;;4.10;99.90;;;;;;2044217;28;20212;-73
2023/12/14 02:41:43;;;;;;;1.20;0.90;;;4.10;99.90;;;;;;2038075;29;20220;-74
2023/12/14 02:42:43;;;;;;;1.30;1.10;;;4.10;99.90;;;;;;2033275;29;20221;-73
2023/12/14 02:43:44;;;;;;;1.77;0.87;;;4.10;99.90;;;;;;2050210;28;20220;-74
2023/12/14 02:44:46;;;;;;;1.10;0.93;;;4.10;99.90;;;;;;2049733;28;20220;-74
2023/12/14 02:45:47;;;;;;;1.20;0.90;;;4.00;99.90;;;;;;2049346;28;20733;-74
2023/12/14 02:46:48;;;;;;;1.07;0.97;;;4.10;99.90;;;;;;2044325;28;20231;-74
2023/12/14 02:47:49;;;;;;;1.00;0.90;;;4.10;99.90;;;;;;2044039;28;20216;-73
2023/12/14 02:48:50;;;;;;;1.17;1.08;;;4.00;99.90;;;;;;2045008;28;20277;-74
2023/12/14 02:49:51;;;;;;;1.27;1.07;;;4.00;99.90;;;;;;2041407;28;20248;-73
2023/12/14 02:50:53;;;;;;;1.27;1.07;;;4.00;99.90;;;;;;2042111;28;20251;-73
2023/12/14 02:51:53;;;;;;;1.70;1.17;;;4.00;99.90;;;;;;2065523;28;20242;-73
2023/12/14 02:52:54;;;;;;;1.53;1.30;;;4.00;99.90;;;;;;2065327;28;20578;-74
2023/12/14 02:53:57;;;;;;;1.90;1.40;;;4.10;99.90;;;;;;2066953;28;20232;-73
2023/12/14 02:54:57;;;;;;;1.55;1.38;;;4.20;99.90;;;;;;2065550;28;20238;-73
2023/12/14 02:56:02;;;;;;;4.73;1.40;;;4.20;99.90;;;;;;2051997;28;20219;-73
2023/12/14 02:57:03;;;;;;;1.50;1.40;;;4.20;99.90;;;;;;2036148;28;20228;-74
2023/12/14 02:58:03;;;;;;;1.30;1.20;;;4.20;99.90;;;;;;2036659;28;20276;-73
2023/12/14 02:59:04;;;;;;;1.73;1.63;;;4.20;99.90;;;;;;2052436;28;20191;-74
2023/12/14 03:00:06;;;;;;;1.80;1.50;;;4.30;99.90;;;;;;2043214;28;20695;-75
2023/12/14 03:01:07;;;;;;;2.65;1.83;;;4.30;99.90;;;;;;2047923;28;20223;-73
2023/12/14 03:02:07;;;;;;;1.80;1.50;;;4.30;99.90;;;;;;2043244;28;20203;-73
2023/12/14 03:03:08;;;;;;;3.70;1.70;;;4.30;99.90;;;;;;2048330;28;20187;-73
2023/12/14 03:04:09;;;;;;;1.87;1.50;;;4.40;99.90;;;;;;2047885;28;20261;-73
2023/12/14 03:05:10;;;;;;;1.80;1.50;;;4.40;99.90;;;;;;2053864;28;20313;-73
2023/12/14 03:06:10;;;;;;;2.27;1.50;;;4.50;99.90;;;;;;2053855;28;20218;-73
2023/12/14 03:07:11;;;;;;;2.17;1.73;;;4.50;99.90;;;;;;2054021;28;20622;-73
2023/12/14 03:08:12;;;;;;;3.20;2.13;;;4.50;99.90;;;;;;2043217;28;20207;-73
2023/12/14 03:09:13;;;;;;;2.43;1.50;;;4.50;99.90;;;;;;2079052;28;20181;-73
2023/12/14 03:10:14;;;;;;;1.35;1.23;;;4.50;99.90;;;;;;2045976;29;20180;-73
2023/12/14 03:11:24;;;;;;;1.42;1.17;;;4.50;99.90;;;;;;2054982;28;20199;-73
2023/12/14 03:12:25;;;;;;;1.90;1.63;;;4.60;99.90;;;;;;2085265;28;20338;-73
2023/12/14 03:13:25;;;;;;;2.77;1.53;;;4.60;99.90;;;;;;2079116;28;20232;-74
2023/12/14 03:14:31;;;;;;;2.47;1.70;;;4.70;99.90;;;;;;2037688;29;20232;-73
2023/12/14 03:15:32;;;;;;;1.60;1.50;;;4.70;99.90;;;;;;2043102;28;20239;-73
2023/12/14 03:16:35;;;;;;;1.67;1.30;;;4.80;99.90;;;;;;2045500;28;20258;-73
2023/12/14 03:17:36;;;;;;;1.33;1.10;;;4.80;99.90;;;;;;2052588;28;20226;-73
2023/12/14 03:18:36;;;;;;;1.80;1.50;;;4.80;99.90;;;;;;2060403;28;20222;-73
2023/12/14 03:19:37;;;;;;;1.40;1.30;;;4.80;99.90;;;;;;2039085;28;20224;-73
2023/12/14 03:20:38;;;;;;;1.13;1.03;;;4.80;99.90;;;;;;2044900;28;20694;-73
2023/12/14 03:21:38;;;;;;;1.40;1.20;;;4.80;99.90;;;;;;2040447;29;20216;-73
2023/12/14 03:22:39;;;;;;;1.30;1.13;;;4.80;99.90;;;;;;2040554;28;20758;-73
2023/12/14 03:23:39;;;;;;;1.67;1.20;;;4.80;99.90;;;;;;2030056;28;20282;-73
2023/12/14 03:24:40;;;;;;;1.70;1.37;;;4.80;99.90;;;;;;2037693;28;20220;-73
2023/12/14 03:25:41;;;;;;;1.47;1.37;;;4.70;99.90;;;;;;2037255;29;20235;-72
2023/12/14 03:26:42;;;;;;;1.70;1.33;;;4.70;99.90;;;;;;2074488;28;20216;-72
2023/12/14 03:27:43;;;;;;;1.70;1.17;;;4.60;99.90;;;;;;2077574;28;20271;-73
2023/12/14 03:28:44;;;;;;;1.65;1.35;;;4.60;99.90;;;;;;2059135;28;20233;-73
2023/12/14 03:29:45;;;;;;;1.80;1.30;;;4.70;99.90;;;;;;2053455;28;20297;-73
2023/12/14 03:30:46;;;;;;;1.00;0.90;;;4.70;99.90;;;;;;2051484;28;20215;-73
2023/12/14 03:31:47;;;;;;;1.83;1.63;;;4.70;99.90;;;;;;2053542;28;20246;-73
2023/12/14 03:32:47;;;;;;;2.20;1.87;;;4.80;99.90;;;;;;2051093;28;20226;-72
2023/12/14 03:33:48;;;;;;;2.33;1.70;;;4.80;99.90;;;;;;2041840;28;20251;-73
2023/12/14 03:34:49;;;;;;;2.23;1.67;;;4.80;99.90;;;;;;2042175;28;20614;-72
2023/12/14 03:35:49;;;;;;;3.03;1.23;;;4.80;99.90;;;;;;2048676;28;20220;-72
2023/12/14 03:36:51;;;;;;;2.30;1.70;;;4.80;99.90;;;;;;2057936;28;20942;-73
2023/12/14 03:37:52;;;;;;;2.20;1.30;;;4.80;99.90;;;;;;2050819;28;20243;-72
2023/12/14 03:38:53;;;;;;;2.43;1.50;;;4.80;99.90;;;;;;2050907;28;20655;-72
2023/12/14 03:39:53;;;;;;;1.55;1.35;;;4.80;99.90;;;;;;2052139;28;20905;-72
2023/12/14 03:40:54;;;;;;;1.43;1.27;;;4.80;99.90;;;;;;2057470;28;20313;-73
2023/12/14 03:41:55;;;;;;;1.55;1.35;;;4.90;99.90;;;;;;2045148;28;20289;-73
2023/12/14 03:42:56;;;;;;;1.53;1.40;;;4.90;99.90;;;;;;2035163;28;20592;-72
2023/12/14 03:43:57;;;;;;;2.10;1.90;;;4.90;99.90;;;;;;2043547;28;20299;-72
2023/12/14 03:44:57;;;;;;;1.87;1.60;;;4.90;99.90;;;;;;2055844;28;20251;-73
2023/12/14 03:45:58;;;;;;;1.80;1.53;;;4.90;99.90;;;;;;2053530;28;20235;-72
2023/12/14 03:47:00;;;;;;;1.93;1.10;;;4.90;99.90;;;;;;2045787;28;20228;-72
2023/12/14 03:48:00;;;;;;;1.65;1.20;;;4.90;99.90;;;;;;2037536;29;20237;-72
2023/12/14 03:49:02;;;;;;;1.70;1.30;;;4.80;99.90;;;;;;2034217;28;20214;-72
2023/12/14 03:50:04;;;;;;;1.48;1.30;;;4.70;99.90;;;;;;2053026;28;20211;-73
2023/12/14 03:51:05;;;;;;;1.20;1.10;;;4.70;99.90;;;;;;2050216;28;20256;-73
2023/12/14 03:52:06;;;;;;;1.77;1.30;;;4.70;99.90;;;;;;2043967;28;20194;-73
2023/12/14 03:53:07;;;;;;;1.20;1.10;;;4.70;99.90;;;;;;2050845;28;20187;-72
2023/12/14 03:54:07;;;;;;;1.15;1.05;;;4.70;99.90;;;;;;2052831;28;20237;-73
2023/12/14 03:55:08;;;;;;;1.03;1.00;;;4.60;99.90;;;;;;2042149;28;20191;-73
2023/12/14 03:56:09;;;;;;;1.07;0.93;;;4.70;99.90;;;;;;2046617;28;20191;-72
2023/12/14 03:57:10;;;;;;;1.43;1.10;;;4.70;99.90;;;;;;2053124;28;20234;-72
2023/12/14 03:58:10;;;;;;;1.33;1.23;;;4.80;99.90;;;;;;2050938;28;20183;-72
2023/12/14 03:59:11;;;;;;;1.10;1.00;;;4.90;99.90;;;;;;2051218;28;20606;-72
2023/12/14 04:00:14;;;;;;;1.15;1.05;;;4.90;99.90;;;;;;2044832;28;20569;-73
2023/12/14 04:01:20;;;;;;;0.98;0.80;;;4.80;99.90;;;;;;2045774;28;20265;-73
2023/12/14 04:02:21;;;;;;;0.70;0.70;;;4.80;99.90;;;;;;2038269;28;24040;-73
2023/12/14 04:03:22;;;;;;;1.00;1.00;;;4.60;99.90;;;;;;2037540;28;20272;-73
2023/12/14 04:04:23;;;;;;;1.25;0.70;;;4.60;99.90;;;;;;2066681;28;20238;-73
2023/12/14 04:05:23;;;;;;;0.90;0.80;;;4.60;99.90;;;;;;2043996;28;20227;-73
2023/12/14 04:06:24;;;;;;;1.23;0.80;;;4.70;99.90;;;;;;2037833;29;20244;-73
2023/12/14 04:07:25;;;;;;;0.80;0.80;;;4.80;99.90;;;;;;2044886;28;20243;-73
2023/12/14 04:08:25;;;;;;;0.80;0.70;;;4.80;99.90;;;;;;2051713;28;20369;-73
2023/12/14 04:09:26;;;;;;;0.87;0.87;;;4.90;99.90;;;;;;2053121;28;20318;-73
2023/12/14 04:10:27;;;;;;;0.90;0.87;;;4.90;99.90;;;;;;2078286;28;20241;-73
2023/12/14 04:11:27;;;;;;;0.70;0.70;;;5.00;99.90;;;;;;2077199;28;20226;-73
2023/12/14 04:12:28;;;;;;;0.80;0.80;;;5.10;99.90;;;;;;2040970;28;20247;-73
2023/12/14 04:13:29;;;;;;;0.60;0.60;;;5.10;99.90;;;;;;2041186;28;20235;-73
2023/12/14 04:14:30;;;;;;;1.07;0.90;;;5.10;99.90;;;;;;2045231;28;20257;-73
2023/12/14 04:15:30;;;;;;;0.97;0.97;;;5.10;99.90;;;;;;2043569;28;20251;-73
2023/12/14 04:16:31;;;;;;;1.10;1.00;;;5.20;99.90;;;;;;2053487;28;20234;-74
2023/12/14 04:17:32;;;;;;;0.70;0.70;;;5.10;99.90;;;;;;2053746;28;20233;-73
2023/12/14 04:18:33;;;;;;;1.95;0.90;;;5.20;99.90;;;;;;2090893;28;20737;-74
2023/12/14 04:19:33;;;;;;;1.97;1.20;;;5.10;99.90;;;;;;2053060;28;20231;-74
2023/12/14 04:20:43;;;;;;;0.77;0.77;;;5.10;99.90;;;;;;2038733;28;20734;-73
2023/12/14 04:22:16;;;;;;;1.38;1.20;;;5.10;99.90;;;;;;2050578;28;20228;-73
2023/12/14 04:23:29;;;;;;;0.70;0.70;;;5.00;99.90;;;;;;2042093;28;20255;-73
2023/12/14 04:24:30;;;;;;;0.80;0.80;;;4.90;99.90;;;;;;2039024;28;20231;-74
2023/12/14 04:25:31;;;;;;;0.60;0.60;;;4.80;99.90;;;;;;2039016;28;20259;-73
2023/12/14 04:26:31;;;;;;;0.93;0.80;;;4.80;99.90;;;;;;2043798;28;20243;-74
2023/12/14 04:27:32;;;;;;;1.53;1.23;;;4.80;99.90;;;;;;2052838;28;20227;-73
2023/12/14 04:28:33;;;;;;;1.35;1.23;;;4.80;99.90;;;;;;2051517;28;20230;-73
2023/12/14 04:29:34;;;;;;;1.10;0.90;;;4.80;99.90;;;;;;2058220;28;20224;-73
2023/12/14 04:30:35;;;;;;;1.00;0.90;;;4.80;99.90;;;;;;2046904;28;20239;-74
2023/12/14 04:31:50;;;;;;;1.30;0.90;;;4.70;99.90;;;;;;2053391;28;21003;-73
2023/12/14 04:32:51;;;;;;;2.05;1.00;;;4.80;99.90;;;;;;2046159;28;20251;-73
2023/12/14 04:33:52;;;;;;;1.27;0.93;;;4.80;99.90;;;;;;2047413;28;20218;-73
2023/12/14 04:34:53;;;;;;;1.20;1.10;;;4.70;99.90;;;;;;2041374;28;20307;-73
2023/12/14 04:35:55;;;;;;;1.23;1.10;;;4.80;99.90;;;;;;2053262;28;20223;-73
2023/12/14 04:36:57;;;;;;;1.63;1.20;;;4.80;99.90;;;;;;2049449;28;20219;-73
2023/12/14 04:37:58;;;;;;;0.80;0.80;;;4.90;99.90;;;;;;2044268;28;20243;-74
2023/12/14 04:38:59;;;;;;;1.10;1.00;;;5.00;99.90;;;;;;2040583;28;20235;-73
2023/12/14 04:40:00;;;;;;;1.13;1.00;;;5.00;99.90;;;;;;2043051;28;20215;-73
2023/12/14 04:41:01;;;;;;;1.00;0.90;;;5.00;99.90;;;;;;2048401;28;20226;-73
2023/12/14 04:42:01;;;;;;;1.20;1.07;;;5.00;99.90;;;;;;2047510;28;20210;-73
2023/12/14 04:43:03;;;;;;;1.00;0.90;;;5.10;99.90;;;;;;2043355;28;20191;-73
2023/12/14 04:44:04;;;;;;;1.30;1.13;;;5.10;99.90;;;;;;2044721;28;20726;-73
2023/12/14 04:45:06;;;;;;;1.05;0.95;;;5.10;99.90;;;;;;2049800;28;20589;-73
2023/12/14 04:46:07;;;;;;;1.10;1.00;;;5.10;99.90;;;;;;2040804;28;20223;-74
2023/12/14 04:47:08;;;;;;;1.10;1.00;;;5.20;99.90;;;;;;2042574;28;20678;-73
2023/12/14 04:48:08;;;;;;;1.20;1.10;;;5.20;99.90;;;;;;2037525;28;20188;-74
2023/12/14 04:49:09;;;;;;;1.60;1.20;;;5.20;99.90;;;;;;2053226;28;20183;-73
2023/12/14 04:50:10;;;;;;;2.37;1.33;;;5.20;99.90;;;;;;2051033;28;20176;-73
2023/12/14 04:51:13;;;;;;;0.83;0.77;;;5.20;99.90;;;;;;2035894;28;20198;-73
2023/12/14 04:52:14;;;;;;;3.03;2.00;;;5.20;99.90;;;;;;2029008;29;20243;-73
2023/12/14 04:53:15;;;;;;;2.28;1.33;;;5.20;99.90;;;;;;2042117;28;20186;-73
2023/12/14 04:54:16;;;;;;;1.20;1.10;;;5.20;99.90;;;;;;2056570;28;20186;-73
2023/12/14 04:55:16;;;;;;;1.50;1.33;;;5.20;99.90;;;;;;2073890;28;20275;-73
2023/12/14 04:56:17;;;;;;;1.87;1.10;;;5.20;99.90;;;;;;2034467;28;20852;-73
2023/12/14 04:57:18;;;;;;;1.53;1.10;;;5.20;99.90;;;;;;2035341;28;20200;-73
2023/12/14 04:58:18;;;;;;;1.90;1.20;;;5.20;99.90;;;;;;2044413;28;20207;-73
2023/12/14 04:59:19;;;;;;;1.90;1.20;;;5.20;99.90;;;;;;2033285;28;20302;-73
2023/12/14 05:00:20;;;;;;;1.47;1.10;;;5.10;99.90;;;;;;2056054;28;20225;-73
2023/12/14 05:01:21;;;;;;;1.10;1.00;;;5.00;99.90;;;;;;2068072;28;20715;-73
2023/12/14 05:02:21;;;;;;;1.47;1.13;;;5.00;99.90;;;;;;2066281;28;20243;-73
2023/12/14 05:03:22;;;;;;;2.63;2.10;;;5.00;99.90;;;;;;2045229;28;20248;-73
2023/12/14 05:04:23;;;;;;;1.93;1.30;;;5.00;99.90;;;;;;2044691;28;20254;-73
2023/12/14 05:05:23;;;;;;;1.10;1.00;;;4.90;99.90;;;;;;2045195;28;20887;-73
2023/12/14 05:06:24;;;;;;;1.40;1.10;;;4.90;99.90;;;;;;2044937;28;20231;-73
2023/12/14 05:07:25;;;;;;;1.00;0.90;;;4.80;99.90;;;;;;2051832;28;20786;-73
2023/12/14 05:08:25;;;;;;;1.40;0.90;;;4.70;99.90;;;;;;2051306;28;20310;-73
2023/12/14 05:09:26;;;;;;;1.40;1.30;;;4.70;99.90;;;;;;2045763;28;20265;-73
2023/12/14 05:10:27;;;;;;;0.67;0.67;;;4.70;99.90;;;;;;2065804;28;20713;-73
2023/12/14 05:11:27;;;;;;;0.80;0.80;;;4.80;99.90;;;;;;2045766;28;20239;-73
2023/12/14 05:12:29;;;;;;;1.23;1.00;;;4.80;99.90;;;;;;2052972;28;20297;-73
2023/12/14 05:13:30;;;;;;;1.00;0.90;;;4.90;99.90;;;;;;2051498;28;20608;-73
2023/12/14 05:14:31;;;;;;;1.02;0.88;;;4.90;99.90;;;;;;2042967;28;20255;-73
2023/12/14 05:15:32;;;;;;;1.50;1.00;;;4.90;99.90;;;;;;2085336;28;20235;-73
2023/12/14 05:16:32;;;;;;;1.10;1.00;;;5.00;99.90;;;;;;2086271;28;20216;-73
2023/12/14 05:17:36;;;;;;;1.20;1.07;;;5.10;99.90;;;;;;2051219;28;20231;-73
2023/12/14 05:18:37;;;;;;;0.90;0.90;;;5.10;99.90;;;;;;2050504;28;20284;-73
2023/12/14 05:19:37;;;;;;;1.20;1.07;;;5.10;99.90;;;;;;2045576;28;20227;-73
2023/12/14 05:20:38;;;;;;;1.20;0.93;;;5.10;99.90;;;;;;2043557;28;20232;-73
2023/12/14 05:21:39;;;;;;;1.33;1.13;;;5.10;99.90;;;;;;2053082;28;20225;-73
2023/12/14 05:22:40;;;;;;;1.15;1.00;;;5.10;99.90;;;;;;2037736;28;20249;-73
2023/12/14 05:23:40;;;;;;;1.33;0.90;;;5.10;99.90;;;;;;2029855;29;20220;-73